CFG2016 EDDF-EGKK
Flight info
| Callsign | CFG2016 |
|---|---|
| Flight time | N/A |
| Altitude | 36000 |
| Route | OBOKA5G/25C OBOKA Z29 TORNU DCT BREDA DCT VICOT DCT GALSO Q63 ARREK Y4 TEBRA DCT ABTUM DCT ARNUN DCT LARCK |
| Aircraft | A359/H-SDE2E3GHIJ3J4J5LM1ORWXY/LB1D1 |
Departure
| Time | 2026-05-05 16:33 |
|---|---|
| Airport | Frankfurt Main Airport (EDDF) |
Arrival
| Time | N/A |
|---|---|
| Airport | London Gatwick Airport (EGKK) |
| Time | Latitude | Longitude | Altitude | Speed | Heading |
|---|---|---|---|---|---|
| 2026-05-05 16:06 | 50.04583 | 8.56611 | 362 ft | 0 kts | 116° |
| 2026-05-05 16:08 | 50.04736 | 8.56271 | 366 ft | 0 kts | 338° |
| 2026-05-05 16:08 | 50.04707 | 8.56158 | 366 ft | 0 kts | 341° |
| 2026-05-05 16:17 | 50.04701 | 8.56162 | 369 ft | 8 kts | 340° |
| 2026-05-05 16:17 | 50.04682 | 8.56172 | 365 ft | 16 kts | 338° |
| 2026-05-05 16:18 | 50.04646 | 8.56198 | 367 ft | 38 kts | 327° |
| 2026-05-05 16:18 | 50.04630 | 8.56215 | 367 ft | 37 kts | 312° |
| 2026-05-05 16:18 | 50.04617 | 8.56251 | 363 ft | 34 kts | 250° |
| 2026-05-05 16:19 | 50.04618 | 8.56255 | 363 ft | 27 kts | 246° |
| 2026-05-05 16:22 | 50.04618 | 8.56254 | 362 ft | 1 kts | 246° |
| 2026-05-05 16:22 | 50.04591 | 8.56146 | 362 ft | 9 kts | 250° |
| 2026-05-05 16:23 | 50.04512 | 8.55959 | 369 ft | 11 kts | 211° |
| 2026-05-05 16:23 | 50.04446 | 8.55925 | 369 ft | 11 kts | 197° |
| 2026-05-05 16:23 | 50.04325 | 8.55937 | 366 ft | 0 kts | 163° |
| 2026-05-05 16:24 | 50.04324 | 8.55938 | 365 ft | 1 kts | 163° |
| 2026-05-05 16:24 | 50.04242 | 8.55943 | 366 ft | 9 kts | 201° |
| 2026-05-05 16:25 | 50.04180 | 8.55933 | 365 ft | 10 kts | 169° |
| 2026-05-05 16:25 | 50.04085 | 8.56086 | 364 ft | 11 kts | 81° |
| 2026-05-05 16:25 | 50.04110 | 8.56211 | 365 ft | 14 kts | 71° |
| 2026-05-05 16:26 | 50.04196 | 8.56568 | 365 ft | 20 kts | 70° |
| 2026-05-05 16:26 | 50.04303 | 8.57012 | 370 ft | 20 kts | 69° |
| 2026-05-05 16:27 | 50.04337 | 8.57158 | 367 ft | 0 kts | 70° |
| 2026-05-05 16:27 | 50.04341 | 8.57174 | 369 ft | 4 kts | 70° |
| 2026-05-05 16:27 | 50.04356 | 8.57242 | 371 ft | 10 kts | 70° |
| 2026-05-05 16:27 | 50.04385 | 8.57366 | 371 ft | 15 kts | 70° |
| 2026-05-05 16:28 | 50.04425 | 8.57532 | 368 ft | 18 kts | 69° |
| 2026-05-05 16:28 | 50.04471 | 8.57727 | 376 ft | 21 kts | 70° |
| 2026-05-05 16:28 | 50.04508 | 8.57884 | 374 ft | 0 kts | 69° |
| 2026-05-05 16:28 | 50.04513 | 8.57902 | 375 ft | 4 kts | 69° |
| 2026-05-05 16:29 | 50.04530 | 8.57973 | 373 ft | 10 kts | 69° |
| 2026-05-05 16:29 | 50.04561 | 8.58103 | 370 ft | 16 kts | 70° |
| 2026-05-05 16:29 | 50.04601 | 8.58273 | 378 ft | 17 kts | 70° |
| 2026-05-05 16:29 | 50.04643 | 8.58459 | 378 ft | 19 kts | 76° |
| 2026-05-05 16:30 | 50.04643 | 8.58558 | 375 ft | 1 kts | 107° |
| 2026-05-05 16:30 | 50.04635 | 8.58573 | 377 ft | 1 kts | 139° |
| 2026-05-05 16:30 | 50.04619 | 8.58586 | 375 ft | 4 kts | 155° |
| 2026-05-05 16:30 | 50.04583 | 8.58605 | 376 ft | 7 kts | 165° |
| 2026-05-05 16:31 | 50.04528 | 8.58607 | 377 ft | 9 kts | 189° |
| 2026-05-05 16:31 | 50.04481 | 8.58557 | 376 ft | 7 kts | 239° |
| 2026-05-05 16:31 | 50.04471 | 8.58518 | 376 ft | 0 kts | 249° |
| 2026-05-05 16:31 | 50.04454 | 8.58446 | 376 ft | 30 kts | 249° |
| 2026-05-05 16:32 | 50.04329 | 8.57872 | 372 ft | 79 kts | 253° |
| 2026-05-05 16:32 | 50.04172 | 8.57183 | 374 ft | 52 kts | 244° |
| 2026-05-05 16:32 | 50.04057 | 8.56754 | 366 ft | 62 kts | 248° |
| 2026-05-05 16:32 | 50.03836 | 8.55845 | 365 ft | 117 kts | 250° |
| 2026-05-05 16:33 | 50.03466 | 8.54340 | 520 ft | 175 kts | 248° |
| 2026-05-05 16:33 | 50.02984 | 8.52601 | 1517 ft | 176 kts | 246° |
| 2026-05-05 16:33 | 50.02575 | 8.50781 | 2267 ft | 186 kts | 262° |
| 2026-05-05 16:33 | 50.02632 | 8.48652 | 2608 ft | 213 kts | 277° |
| 2026-05-05 16:34 | 50.02859 | 8.46225 | 3074 ft | 237 kts | 277° |
| 2026-05-05 16:34 | 50.02914 | 8.43619 | 3803 ft | 246 kts | 263° |
| 2026-05-05 16:34 | 50.02641 | 8.40944 | 4523 ft | 256 kts | 258° |
| 2026-05-05 16:34 | 50.02301 | 8.38174 | 4920 ft | 263 kts | 258° |
| 2026-05-05 16:35 | 50.01959 | 8.35374 | 5014 ft | 264 kts | 258° |
| 2026-05-05 16:35 | 50.01624 | 8.32605 | 4889 ft | 264 kts | 258° |
| 2026-05-05 16:35 | 50.01311 | 8.29804 | 4929 ft | 263 kts | 261° |
| 2026-05-05 16:35 | 50.01505 | 8.26960 | 5282 ft | 270 kts | 288° |
| 2026-05-05 16:36 | 50.02263 | 8.24273 | 6117 ft | 273 kts | 293° |
| 2026-05-05 16:36 | 50.03072 | 8.21585 | 7078 ft | 275 kts | 292° |
| 2026-05-05 16:36 | 50.03875 | 8.18863 | 8041 ft | 278 kts | 291° |
| 2026-05-05 16:36 | 50.04679 | 8.16118 | 9059 ft | 281 kts | 291° |
| 2026-05-05 16:37 | 50.05485 | 8.13377 | 10013 ft | 285 kts | 292° |
| 2026-05-05 16:37 | 50.06542 | 8.10638 | 10603 ft | 306 kts | 303° |
| 2026-05-05 16:37 | 50.07913 | 8.07942 | 11039 ft | 329 kts | 307° |
| 2026-05-05 16:37 | 50.09405 | 8.05112 | 11563 ft | 345 kts | 307° |
| 2026-05-05 16:38 | 50.10941 | 8.02174 | 12318 ft | 354 kts | 307° |
| 2026-05-05 16:38 | 50.12499 | 7.99168 | 13131 ft | 361 kts | 307° |
| 2026-05-05 16:38 | 50.14065 | 7.96136 | 13939 ft | 366 kts | 306° |
| 2026-05-05 16:38 | 50.15670 | 7.93017 | 14673 ft | 371 kts | 306° |
| 2026-05-05 16:39 | 50.17295 | 7.89852 | 15418 ft | 376 kts | 306° |
| 2026-05-05 16:39 | 50.18936 | 7.86649 | 16169 ft | 380 kts | 306° |
| 2026-05-05 16:39 | 50.20593 | 7.83410 | 16929 ft | 384 kts | 306° |
| 2026-05-05 16:39 | 50.22267 | 7.80133 | 17673 ft | 389 kts | 306° |
| 2026-05-05 16:40 | 50.23996 | 7.76844 | 18384 ft | 394 kts | 309° |
| 2026-05-05 16:40 | 50.26029 | 7.73923 | 19070 ft | 401 kts | 321° |
| 2026-05-05 16:40 | 50.28451 | 7.71722 | 19799 ft | 407 kts | 333° |
| 2026-05-05 16:40 | 50.31028 | 7.69941 | 20510 ft | 412 kts | 335° |
| 2026-05-05 16:41 | 50.33666 | 7.68169 | 21220 ft | 416 kts | 334° |
| 2026-05-05 16:41 | 50.36331 | 7.66363 | 21936 ft | 419 kts | 334° |
| 2026-05-05 16:41 | 50.39020 | 7.64535 | 22651 ft | 423 kts | 334° |
| 2026-05-05 16:41 | 50.41734 | 7.62674 | 23349 ft | 427 kts | 334° |
| 2026-05-05 16:42 | 50.44467 | 7.60794 | 23920 ft | 432 kts | 333° |
| 2026-05-05 16:42 | 50.47228 | 7.58892 | 24470 ft | 437 kts | 333° |
| 2026-05-05 16:42 | 50.50025 | 7.56962 | 25018 ft | 441 kts | 333° |
| 2026-05-05 16:42 | 50.52851 | 7.55010 | 25578 ft | 446 kts | 333° |
| 2026-05-05 16:43 | 50.55668 | 7.52938 | 26110 ft | 448 kts | 328° |
| 2026-05-05 16:43 | 50.58307 | 7.50444 | 26671 ft | 449 kts | 323° |
| 2026-05-05 16:43 | 50.60938 | 7.47752 | 27218 ft | 453 kts | 323° |
| 2026-05-05 16:43 | 50.63587 | 7.45027 | 27776 ft | 457 kts | 323° |
| 2026-05-05 16:44 | 50.66259 | 7.42282 | 28327 ft | 461 kts | 322° |
| 2026-05-05 16:44 | 50.68955 | 7.39510 | 28887 ft | 464 kts | 322° |
| 2026-05-05 16:44 | 50.71617 | 7.36610 | 29390 ft | 465 kts | 317° |
| 2026-05-05 16:44 | 50.73988 | 7.33164 | 29907 ft | 462 kts | 307° |
| 2026-05-05 16:45 | 50.75927 | 7.29164 | 30351 ft | 458 kts | 297° |
| 2026-05-05 16:45 | 50.77501 | 7.24793 | 30792 ft | 458 kts | 293° |
| 2026-05-05 16:45 | 50.78969 | 7.20371 | 31203 ft | 461 kts | 292° |
| 2026-05-05 16:45 | 50.80412 | 7.15890 | 31587 ft | 463 kts | 292° |
| 2026-05-05 16:46 | 50.81876 | 7.11294 | 31958 ft | 466 kts | 292° |
| 2026-05-05 16:46 | 50.83341 | 7.06697 | 32361 ft | 469 kts | 292° |
| 2026-05-05 16:46 | 50.84822 | 7.02068 | 32750 ft | 472 kts | 292° |
| 2026-05-05 16:46 | 50.86310 | 6.97431 | 33103 ft | 475 kts | 292° |
| 2026-05-05 16:47 | 50.87818 | 6.92742 | 33485 ft | 478 kts | 292° |
| 2026-05-05 16:47 | 50.89308 | 6.88114 | 33942 ft | 478 kts | 292° |
| 2026-05-05 16:47 | 50.90836 | 6.83365 | 34401 ft | 478 kts | 292° |
| 2026-05-05 16:47 | 50.92323 | 6.78735 | 34771 ft | 477 kts | 292° |
| 2026-05-05 16:48 | 50.93827 | 6.74041 | 35132 ft | 477 kts | 292° |
| 2026-05-05 16:48 | 50.95326 | 6.69348 | 35501 ft | 477 kts | 292° |
| 2026-05-05 16:48 | 50.96823 | 6.64652 | 35780 ft | 479 kts | 292° |
| 2026-05-05 16:48 | 50.98321 | 6.59942 | 35837 ft | 478 kts | 292° |
| 2026-05-05 16:49 | 51.01308 | 6.50530 | 35839 ft | 476 kts | 292° |
| 2026-05-05 16:49 | 51.04263 | 6.41180 | 35853 ft | 476 kts | 292° |
| 2026-05-05 16:50 | 51.07227 | 6.31762 | 35854 ft | 477 kts | 292° |
| 2026-05-05 16:50 | 51.10188 | 6.22317 | 35858 ft | 477 kts | 292° |
| 2026-05-05 16:51 | 51.13116 | 6.12860 | 35853 ft | 476 kts | 290° |
| 2026-05-05 16:51 | 51.15171 | 6.03014 | 35856 ft | 470 kts | 281° |
| 2026-05-05 16:52 | 51.16843 | 5.92935 | 35864 ft | 470 kts | 280° |
| 2026-05-05 16:52 | 51.18808 | 5.82974 | 35866 ft | 476 kts | 290° |
| 2026-05-05 16:53 | 51.22053 | 5.73726 | 35874 ft | 480 kts | 297° |
| 2026-05-05 16:53 | 51.25560 | 5.64728 | 35873 ft | 481 kts | 298° |
| 2026-05-05 16:54 | 51.29118 | 5.55682 | 35877 ft | 481 kts | 298° |
| 2026-05-05 16:54 | 51.32656 | 5.46595 | 35884 ft | 481 kts | 298° |
| 2026-05-05 16:55 | 51.36170 | 5.37491 | 35887 ft | 481 kts | 297° |
| 2026-05-05 16:55 | 51.39655 | 5.28419 | 35885 ft | 482 kts | 297° |
| 2026-05-05 16:56 | 51.43157 | 5.19271 | 35884 ft | 482 kts | 297° |
| 2026-05-05 16:56 | 51.46648 | 5.10123 | 35884 ft | 482 kts | 297° |
| 2026-05-05 16:57 | 51.50149 | 5.00917 | 35882 ft | 483 kts | 297° |
| 2026-05-05 16:57 | 51.53404 | 4.91535 | 35879 ft | 478 kts | 289° |
| 2026-05-05 16:58 | 51.55041 | 4.81413 | 35877 ft | 468 kts | 271° |
| 2026-05-05 16:58 | 51.54749 | 4.71068 | 35880 ft | 463 kts | 259° |
| 2026-05-05 16:59 | 51.53781 | 4.60846 | 35882 ft | 463 kts | 257° |
| 2026-05-05 16:59 | 51.52738 | 4.50661 | 35885 ft | 463 kts | 258° |
| 2026-05-05 17:00 | 51.51710 | 4.40440 | 35884 ft | 463 kts | 258° |
| 2026-05-05 17:00 | 51.50705 | 4.30314 | 35883 ft | 463 kts | 258° |
| 2026-05-05 17:01 | 51.49688 | 4.20088 | 35884 ft | 464 kts | 258° |
| 2026-05-05 17:01 | 51.48949 | 4.09793 | 35883 ft | 468 kts | 266° |
| 2026-05-05 17:02 | 51.49951 | 3.99424 | 35883 ft | 477 kts | 285° |
| 2026-05-05 17:02 | 51.52531 | 3.89634 | 35885 ft | 481 kts | 291° |
| 2026-05-05 17:03 | 51.55390 | 3.79916 | 35889 ft | 481 kts | 292° |
| 2026-05-05 17:03 | 51.58247 | 3.70179 | 35891 ft | 481 kts | 291° |
| 2026-05-05 17:04 | 51.61060 | 3.60421 | 35894 ft | 481 kts | 291° |
| 2026-05-05 17:04 | 51.63830 | 3.50705 | 35894 ft | 481 kts | 291° |
| 2026-05-05 17:05 | 51.66616 | 3.40883 | 35905 ft | 481 kts | 291° |
| 2026-05-05 17:05 | 51.69366 | 3.31151 | 35906 ft | 481 kts | 291° |
| 2026-05-05 17:06 | 51.71870 | 3.21195 | 35918 ft | 476 kts | 282° |
| 2026-05-05 17:06 | 51.72636 | 3.10730 | 35918 ft | 468 kts | 264° |
| 2026-05-05 17:07 | 51.71932 | 3.00311 | 35909 ft | 467 kts | 259° |
| 2026-05-05 17:07 | 51.70994 | 2.90022 | 35911 ft | 467 kts | 259° |
| 2026-05-05 17:08 | 51.70033 | 2.79640 | 35925 ft | 467 kts | 259° |
| 2026-05-05 17:08 | 51.69101 | 2.69336 | 35920 ft | 468 kts | 259° |
| 2026-05-05 17:09 | 51.68175 | 2.58936 | 35919 ft | 468 kts | 259° |
| 2026-05-05 17:09 | 51.67240 | 2.48555 | 35926 ft | 469 kts | 259° |
| 2026-05-05 17:10 | 51.66294 | 2.38163 | 35923 ft | 469 kts | 259° |
| 2026-05-05 17:10 | 51.65335 | 2.27833 | 35925 ft | 470 kts | 259° |
| 2026-05-05 17:11 | 51.64362 | 2.17439 | 35929 ft | 470 kts | 259° |
| 2026-05-05 17:11 | 51.63873 | 2.12237 | 35754 ft | 467 kts | 259° |
| 2026-05-05 17:11 | 51.63391 | 2.07076 | 35074 ft | 466 kts | 259° |
| 2026-05-05 17:12 | 51.62914 | 2.01923 | 34359 ft | 467 kts | 259° |
| 2026-05-05 17:12 | 51.62435 | 1.96743 | 33619 ft | 466 kts | 259° |
| 2026-05-05 17:12 | 51.61954 | 1.91576 | 32747 ft | 467 kts | 258° |
| 2026-05-05 17:12 | 51.61193 | 1.86593 | 31805 ft | 466 kts | 249° |
| 2026-05-05 17:13 | 51.59858 | 1.81843 | 30834 ft | 466 kts | 238° |
| 2026-05-05 17:13 | 51.57974 | 1.77593 | 30311 ft | 466 kts | 231° |
| 2026-05-05 17:13 | 51.56101 | 1.73395 | 29958 ft | 465 kts | 230° |
| 2026-05-05 17:13 | 51.54032 | 1.69514 | 29111 ft | 456 kts | 226° |
| 2026-05-05 17:14 | 51.51867 | 1.65779 | 27899 ft | 455 kts | 226° |
| 2026-05-05 17:14 | 51.49874 | 1.61858 | 26564 ft | 451 kts | 233° |
| 2026-05-05 17:14 | 51.48264 | 1.57583 | 25274 ft | 446 kts | 242° |
| 2026-05-05 17:14 | 51.47002 | 1.53083 | 24062 ft | 439 kts | 246° |
| 2026-05-05 17:15 | 51.45887 | 1.48565 | 22751 ft | 432 kts | 248° |
| 2026-05-05 17:15 | 51.44841 | 1.44098 | 21378 ft | 424 kts | 247° |
| 2026-05-05 17:15 | 51.43573 | 1.39941 | 20113 ft | 416 kts | 238° |
| 2026-05-05 17:15 | 51.41881 | 1.36245 | 18870 ft | 408 kts | 227° |
| 2026-05-05 17:16 | 51.39847 | 1.33132 | 17596 ft | 403 kts | 220° |
| 2026-05-05 17:16 | 51.37678 | 1.30327 | 16273 ft | 398 kts | 217° |
| 2026-05-05 17:16 | 51.35461 | 1.27703 | 15099 ft | 393 kts | 216° |
| 2026-05-05 17:16 | 51.33246 | 1.25177 | 14385 ft | 392 kts | 215° |
| 2026-05-05 17:17 | 51.31032 | 1.22665 | 14026 ft | 391 kts | 216° |
| 2026-05-05 17:17 | 51.28814 | 1.20126 | 13938 ft | 390 kts | 216° |
| 2026-05-05 17:17 | 51.26651 | 1.17623 | 13807 ft | 388 kts | 216° |
| 2026-05-05 17:17 | 51.24448 | 1.15054 | 13537 ft | 387 kts | 216° |
| 2026-05-05 17:18 | 51.22303 | 1.12538 | 13268 ft | 386 kts | 216° |
| 2026-05-05 17:18 | 51.20149 | 1.10007 | 13017 ft | 384 kts | 216° |
| 2026-05-05 17:18 | 51.17999 | 1.07483 | 12755 ft | 383 kts | 216° |
| 2026-05-05 17:18 | 51.15859 | 1.04974 | 12495 ft | 381 kts | 216° |
| 2026-05-05 17:19 | 51.13709 | 1.02458 | 12255 ft | 384 kts | 216° |
| 2026-05-05 17:19 | 51.11568 | 0.99957 | 12004 ft | 379 kts | 216° |
| 2026-05-05 17:19 | 51.09446 | 0.97482 | 11737 ft | 377 kts | 216° |
| 2026-05-05 17:19 | 51.07405 | 0.94994 | 11483 ft | 376 kts | 221° |
| 2026-05-05 17:20 | 51.05644 | 0.91941 | 11260 ft | 374 kts | 234° |
| 2026-05-05 17:20 | 51.04280 | 0.88449 | 11027 ft | 365 kts | 241° |
| 2026-05-05 17:20 | 51.03129 | 0.84948 | 10787 ft | 350 kts | 244° |
| 2026-05-05 17:20 | 51.02104 | 0.81516 | 10552 ft | 337 kts | 245° |
| 2026-05-05 17:21 | 51.01148 | 0.78182 | 10325 ft | 325 kts | 246° |
| 2026-05-05 17:21 | 51.00243 | 0.75011 | 10099 ft | 314 kts | 246° |
| 2026-05-05 17:21 | 50.99351 | 0.71921 | 9898 ft | 303 kts | 245° |
| 2026-05-05 17:22 | 50.97619 | 0.66048 | 9490 ft | 283 kts | 245° |
| 2026-05-05 17:22 | 50.96785 | 0.63267 | 9290 ft | 274 kts | 245° |
| 2026-05-05 17:22 | 50.95975 | 0.60582 | 9112 ft | 265 kts | 245° |
| 2026-05-05 17:22 | 50.95192 | 0.57992 | 8940 ft | 256 kts | 245° |
| 2026-05-05 17:23 | 50.94449 | 0.55505 | 8926 ft | 251 kts | 246° |
| 2026-05-05 17:23 | 50.94095 | 0.52830 | 9006 ft | 250 kts | 274° |
| 2026-05-05 17:23 | 50.94547 | 0.50209 | 9021 ft | 247 kts | 296° |
| 2026-05-05 17:23 | 50.95364 | 0.47813 | 9024 ft | 248 kts | 301° |
| 2026-05-05 17:24 | 50.96238 | 0.45453 | 9033 ft | 248 kts | 301° |
| 2026-05-05 17:24 | 50.97116 | 0.43101 | 9044 ft | 248 kts | 301° |
| 2026-05-05 17:24 | 50.97996 | 0.40742 | 9046 ft | 248 kts | 301° |
| 2026-05-05 17:24 | 50.98818 | 0.38338 | 9039 ft | 249 kts | 292° |
| 2026-05-05 17:25 | 50.99139 | 0.35644 | 9055 ft | 249 kts | 274° |
| 2026-05-05 17:25 | 50.99181 | 0.33826 | 9053 ft | 249 kts | 272° |
| 2026-05-05 17:25 | 50.99203 | 0.30167 | 9046 ft | 250 kts | 271° |
| 2026-05-05 17:25 | 50.99211 | 0.27412 | 9040 ft | 250 kts | 271° |
| 2026-05-05 17:26 | 50.99219 | 0.24642 | 9036 ft | 250 kts | 271° |
| 2026-05-05 17:26 | 50.99225 | 0.21881 | 9026 ft | 250 kts | 271° |
| 2026-05-05 17:26 | 50.99231 | 0.19144 | 9019 ft | 250 kts | 271° |
| 2026-05-05 17:26 | 50.99238 | 0.16388 | 9011 ft | 250 kts | 271° |
| 2026-05-05 17:27 | 50.99245 | 0.13625 | 9003 ft | 250 kts | 271° |
| 2026-05-05 17:27 | 50.99252 | 0.10852 | 8932 ft | 250 kts | 271° |
| 2026-05-05 17:27 | 50.99258 | 0.08093 | 8933 ft | 250 kts | 271° |
| 2026-05-05 17:27 | 50.99265 | 0.05337 | 8933 ft | 250 kts | 271° |
| 2026-05-05 17:28 | 50.99273 | 0.02611 | 8935 ft | 250 kts | 271° |
| 2026-05-05 17:28 | 50.99278 | -0.00160 | 8998 ft | 250 kts | 271° |
| 2026-05-05 17:28 | 50.99267 | -0.02921 | 8947 ft | 250 kts | 271° |
| 2026-05-05 17:28 | 50.99236 | -0.05677 | 8930 ft | 250 kts | 271° |
| 2026-05-05 17:29 | 50.99204 | -0.08424 | 8933 ft | 249 kts | 271° |
| 2026-05-05 17:29 | 50.99172 | -0.11187 | 8748 ft | 252 kts | 271° |
| 2026-05-05 17:29 | 50.99140 | -0.13982 | 8417 ft | 252 kts | 271° |
| 2026-05-05 17:29 | 50.99105 | -0.16700 | 8159 ft | 248 kts | 271° |
| 2026-05-05 17:30 | 50.99066 | -0.19441 | 7827 ft | 247 kts | 271° |
| 2026-05-05 17:30 | 50.99025 | -0.22155 | 7516 ft | 245 kts | 271° |
| 2026-05-05 17:30 | 50.98983 | -0.24822 | 7336 ft | 239 kts | 271° |
| 2026-05-05 17:30 | 50.98941 | -0.27415 | 7200 ft | 230 kts | 271° |
| 2026-05-05 17:31 | 50.98896 | -0.29912 | 7071 ft | 222 kts | 271° |
| 2026-05-05 17:31 | 50.98851 | -0.32319 | 6946 ft | 214 kts | 271° |
| 2026-05-05 17:31 | 50.98806 | -0.34608 | 6838 ft | 206 kts | 271° |
| 2026-05-05 17:31 | 50.98772 | -0.36862 | 6656 ft | 201 kts | 274° |
| 2026-05-05 17:32 | 50.99177 | -0.38917 | 6372 ft | 194 kts | 309° |
| 2026-05-05 17:32 | 51.00159 | -0.40313 | 6158 ft | 188 kts | 328° |
| 2026-05-05 17:32 | 51.01261 | -0.41412 | 5905 ft | 187 kts | 330° |
| 2026-05-05 17:32 | 51.02377 | -0.42468 | 5638 ft | 187 kts | 330° |
| 2026-05-05 17:33 | 51.03482 | -0.43506 | 5385 ft | 187 kts | 331° |
| 2026-05-05 17:33 | 51.04594 | -0.44551 | 5149 ft | 185 kts | 331° |
| 2026-05-05 17:33 | 51.05704 | -0.45594 | 4905 ft | 185 kts | 331° |
| 2026-05-05 17:33 | 51.06811 | -0.46636 | 4629 ft | 186 kts | 331° |
| 2026-05-05 17:34 | 51.07959 | -0.47569 | 4331 ft | 186 kts | 345° |
| 2026-05-05 17:34 | 51.09210 | -0.47458 | 4083 ft | 180 kts | 24° |
| 2026-05-05 17:34 | 51.10231 | -0.46397 | 3977 ft | 171 kts | 38° |
| 2026-05-05 17:34 | 51.11063 | -0.45082 | 3764 ft | 169 kts | 56° |
| 2026-05-05 17:35 | 51.11472 | -0.43374 | 3546 ft | 167 kts | 75° |
| 2026-05-05 17:35 | 51.11709 | -0.41584 | 3344 ft | 162 kts | 75° |
| 2026-05-05 17:35 | 51.11954 | -0.39847 | 3095 ft | 161 kts | 75° |
| 2026-05-05 17:35 | 51.12197 | -0.38096 | 2817 ft | 161 kts | 75° |
| 2026-05-05 17:36 | 51.12437 | -0.36364 | 2565 ft | 160 kts | 75° |
| 2026-05-05 17:36 | 51.12676 | -0.34637 | 2299 ft | 159 kts | 76° |
| 2026-05-05 17:36 | 51.12833 | -0.33503 | 2137 ft | 158 kts | 76° |
| 2026-05-05 17:36 | 51.13142 | -0.31249 | 2008 ft | 157 kts | 76° |
| 2026-05-05 17:37 | 51.13374 | -0.29555 | 2002 ft | 156 kts | 76° |
| 2026-05-05 17:37 | 51.13526 | -0.28441 | 2005 ft | 156 kts | 76° |
| 2026-05-05 17:37 | 51.13757 | -0.26760 | 2003 ft | 153 kts | 76° |
| 2026-05-05 17:37 | 51.13984 | -0.25102 | 2007 ft | 154 kts | 76° |
| 2026-05-05 17:38 | 51.14214 | -0.23425 | 1920 ft | 155 kts | 76° |
| 2026-05-05 17:38 | 51.14443 | -0.21752 | 1913 ft | 155 kts | 76° |
| 2026-05-05 17:38 | 51.14673 | -0.20071 | 2189 ft | 156 kts | 76° |
| 2026-05-05 17:38 | 51.14909 | -0.18356 | 2829 ft | 161 kts | 75° |
| 2026-05-05 17:39 | 51.15155 | -0.16592 | 3514 ft | 164 kts | 75° |
| 2026-05-05 17:39 | 51.15208 | -0.14774 | 3911 ft | 167 kts | 92° |
| 2026-05-05 17:39 | 51.14791 | -0.13059 | 3996 ft | 174 kts | 128° |
| 2026-05-05 17:39 | 51.13851 | -0.11843 | 4014 ft | 176 kts | 146° |
| 2026-05-05 17:40 | 51.12773 | -0.10887 | 4010 ft | 178 kts | 150° |
| 2026-05-05 17:40 | 51.11667 | -0.09980 | 4007 ft | 178 kts | 151° |
| 2026-05-05 17:40 | 51.10560 | -0.09084 | 4007 ft | 178 kts | 151° |
| 2026-05-05 17:40 | 51.09453 | -0.08192 | 4005 ft | 179 kts | 151° |
| 2026-05-05 17:41 | 51.08356 | -0.07305 | 3999 ft | 179 kts | 151° |
| 2026-05-05 17:41 | 51.07226 | -0.06399 | 4003 ft | 180 kts | 150° |
| 2026-05-05 17:41 | 51.06117 | -0.05518 | 4005 ft | 180 kts | 151° |
| 2026-05-05 17:41 | 51.04997 | -0.04631 | 4000 ft | 180 kts | 151° |
| 2026-05-05 17:42 | 51.03879 | -0.03743 | 4004 ft | 180 kts | 151° |
| 2026-05-05 17:42 | 51.02747 | -0.02848 | 4014 ft | 184 kts | 151° |
| 2026-05-05 17:42 | 51.01586 | -0.01927 | 4004 ft | 187 kts | 151° |
| 2026-05-05 17:42 | 51.00398 | -0.01076 | 3994 ft | 190 kts | 161° |
| 2026-05-05 17:43 | 50.99104 | -0.01138 | 3996 ft | 191 kts | 201° |
| 2026-05-05 17:43 | 50.98098 | -0.02408 | 3999 ft | 185 kts | 241° |
| 2026-05-05 17:43 | 50.97603 | -0.04272 | 4014 ft | 185 kts | 258° |
| 2026-05-05 17:43 | 50.97279 | -0.06306 | 4013 ft | 194 kts | 261° |
| 2026-05-05 17:44 | 50.96980 | -0.08419 | 4007 ft | 196 kts | 261° |
| 2026-05-05 17:44 | 50.96684 | -0.10529 | 4002 ft | 196 kts | 261° |
| 2026-05-05 17:44 | 50.96392 | -0.12633 | 4001 ft | 196 kts | 261° |
| 2026-05-05 17:44 | 50.96100 | -0.14742 | 4003 ft | 195 kts | 261° |
| 2026-05-05 17:45 | 50.95813 | -0.16822 | 4002 ft | 195 kts | 261° |
| 2026-05-05 17:45 | 50.95523 | -0.18934 | 4001 ft | 195 kts | 261° |
| 2026-05-05 17:45 | 50.95264 | -0.21047 | 3996 ft | 194 kts | 267° |
| 2026-05-05 17:45 | 50.95410 | -0.23141 | 4007 ft | 190 kts | 288° |
| 2026-05-05 17:46 | 50.95776 | -0.25153 | 4004 ft | 190 kts | 290° |
| 2026-05-05 17:46 | 50.96172 | -0.27146 | 4003 ft | 189 kts | 291° |
| 2026-05-05 17:46 | 50.96566 | -0.29113 | 4007 ft | 189 kts | 291° |
| 2026-05-05 17:46 | 50.96968 | -0.31100 | 4000 ft | 189 kts | 291° |
| 2026-05-05 17:47 | 50.97375 | -0.33092 | 4002 ft | 190 kts | 291° |
| 2026-05-05 17:47 | 50.97780 | -0.35081 | 4004 ft | 189 kts | 291° |
| 2026-05-05 17:47 | 50.98184 | -0.37064 | 4000 ft | 189 kts | 291° |
| 2026-05-05 17:47 | 50.98590 | -0.39048 | 4000 ft | 189 kts | 291° |
| 2026-05-05 17:48 | 50.98997 | -0.41041 | 3999 ft | 189 kts | 291° |
| 2026-05-05 17:48 | 50.99396 | -0.43000 | 3996 ft | 189 kts | 291° |
| 2026-05-05 17:48 | 50.99805 | -0.44990 | 3999 ft | 190 kts | 291° |
| 2026-05-05 17:48 | 51.00216 | -0.46987 | 3761 ft | 190 kts | 291° |
| 2026-05-05 17:49 | 51.00629 | -0.48973 | 3535 ft | 189 kts | 290° |
| 2026-05-05 17:49 | 51.01045 | -0.50961 | 3283 ft | 189 kts | 291° |
| 2026-05-05 17:49 | 51.01477 | -0.52928 | 3046 ft | 187 kts | 295° |
| 2026-05-05 17:49 | 51.02294 | -0.54481 | 3000 ft | 184 kts | 332° |
| 2026-05-05 17:50 | 51.03459 | -0.55180 | 3003 ft | 181 kts | 348° |
| 2026-05-05 17:50 | 51.04694 | -0.55601 | 3002 ft | 182 kts | 350° |
| 2026-05-05 17:50 | 51.05938 | -0.55979 | 3001 ft | 182 kts | 351° |
| 2026-05-05 17:50 | 51.07186 | -0.56349 | 2997 ft | 182 kts | 351° |
| 2026-05-05 17:51 | 51.08441 | -0.56424 | 2986 ft | 181 kts | 15° |
| 2026-05-05 17:51 | 51.09387 | -0.55300 | 2997 ft | 166 kts | 56° |
| 2026-05-05 17:51 | 51.09922 | -0.53703 | 2996 ft | 165 kts | 68° |
| 2026-05-05 17:51 | 51.10247 | -0.51989 | 3045 ft | 160 kts | 74° |
| 2026-05-05 17:52 | 51.10507 | -0.50273 | 3009 ft | 160 kts | 74° |
| 2026-05-05 17:52 | 51.10758 | -0.48536 | 3007 ft | 161 kts | 75° |
| 2026-05-05 17:52 | 51.10995 | -0.46783 | 3005 ft | 162 kts | 75° |
| 2026-05-05 17:52 | 51.11237 | -0.45036 | 3003 ft | 162 kts | 75° |
| 2026-05-05 17:53 | 51.11482 | -0.43286 | 3005 ft | 162 kts | 75° |
| 2026-05-05 17:53 | 51.11729 | -0.41532 | 2894 ft | 162 kts | 75° |
| 2026-05-05 17:53 | 51.11968 | -0.39817 | 2681 ft | 160 kts | 75° |
| 2026-05-05 17:53 | 51.12204 | -0.38083 | 2466 ft | 160 kts | 76° |
| 2026-05-05 17:54 | 51.12441 | -0.36354 | 2233 ft | 159 kts | 76° |
| 2026-05-05 17:54 | 51.12677 | -0.34641 | 2026 ft | 158 kts | 76° |
| 2026-05-05 17:54 | 51.12912 | -0.32931 | 1804 ft | 157 kts | 76° |
| 2026-05-05 17:54 | 51.13141 | -0.31257 | 1609 ft | 151 kts | 77° |
| 2026-05-05 17:55 | 51.13356 | -0.29683 | 1398 ft | 141 kts | 76° |
| 2026-05-05 17:55 | 51.13558 | -0.28209 | 1200 ft | 132 kts | 77° |
| 2026-05-05 17:55 | 51.13747 | -0.26831 | 1025 ft | 125 kts | 76° |
| 2026-05-05 17:55 | 51.13931 | -0.25490 | 841 ft | 124 kts | 77° |
| 2026-05-05 17:56 | 51.14116 | -0.24140 | 679 ft | 125 kts | 77° |
| 2026-05-05 17:56 | 51.14301 | -0.22796 | 514 ft | 124 kts | 78° |
| 2026-05-05 17:56 | 51.14482 | -0.21471 | 355 ft | 124 kts | 78° |
| 2026-05-05 17:56 | 51.14657 | -0.20312 | 248 ft | 120 kts | 76° |
| 2026-05-05 17:57 | 51.14721 | -0.19929 | 253 ft | 121 kts | 75° |
| 2026-05-05 17:57 | 51.14290 | -0.22871 | 522 ft | 119 kts | 78° |
| 2026-05-05 17:57 | 51.14480 | -0.21479 | 354 ft | 124 kts | 78° |
| 2026-05-05 17:57 | 51.14657 | -0.20310 | 248 ft | 120 kts | 76° |
| 2026-05-05 17:58 | 51.14468 | -0.21565 | 368 ft | 124 kts | 78° |
| 2026-05-05 17:58 | 51.14644 | -0.20391 | 244 ft | 121 kts | 76° |